createdAt,value
2018-02-19T00:00:14.789Z,19.05
2018-02-19T00:02:44.257Z,20.27
2018-02-19T00:05:13.785Z,17.20
2018-02-19T00:07:43.291Z,21.40
2018-02-19T00:10:12.824Z,17.45
2018-02-19T00:12:42.368Z,18.80
2018-02-19T00:15:12.007Z,17.35
2018-02-19T00:17:41.484Z,17.85
2018-02-19T00:20:11.349Z,18.23
2018-02-19T00:22:41.071Z,16.02
2018-02-19T00:25:10.874Z,19.20
2018-02-19T00:27:40.445Z,15.63
2018-02-19T00:30:10.152Z,19.25
2018-02-19T00:32:39.723Z,18.25
2018-02-19T00:35:09.367Z,19.55
2018-02-19T00:37:38.931Z,23.05
2018-02-19T00:40:08.429Z,19.23
2018-02-19T00:42:38.012Z,23.40
2018-02-19T00:45:08.341Z,19.80
2018-02-19T00:47:37.974Z,20.83
2018-02-19T00:50:07.915Z,25.33
2018-02-19T00:52:37.466Z,21.20
2018-02-19T00:55:07.236Z,20.65
2018-02-19T00:57:36.806Z,19.02
2018-02-19T01:00:06.496Z,19.87
2018-02-19T01:02:36.054Z,20.05
2018-02-19T01:05:05.737Z,21.80
2018-02-19T01:07:35.300Z,20.45
2018-02-19T01:10:04.943Z,20.02
2018-02-19T01:12:34.486Z,18.77
2018-02-19T01:15:04.330Z,19.55
2018-02-19T01:17:33.787Z,23.12
2018-02-19T01:20:03.608Z,21.33
2018-02-19T01:22:33.164Z,20.52
2018-02-19T01:25:02.874Z,24.15
2018-02-19T01:27:32.370Z,21.12
2018-02-19T01:30:01.996Z,21.10
2018-02-19T01:32:31.574Z,21.75
2018-02-19T01:35:01.070Z,18.55
2018-02-19T01:37:30.537Z,30.45
2018-02-19T01:40:00.069Z,21.27
2018-02-19T01:42:29.569Z,23.12
2018-02-19T01:44:59.055Z,24.77
2018-02-19T01:47:28.568Z,22.10
2018-02-19T01:50:04.270Z,23.38
2018-02-19T01:52:33.822Z,23.10
2018-02-19T01:55:03.539Z,18.48
2018-02-19T01:57:33.092Z,24.67
2018-02-19T02:00:02.756Z,25.62
2018-02-19T02:02:32.314Z,20.90
2018-02-19T02:05:01.823Z,20.10
2018-02-19T02:07:31.347Z,23.73
2018-02-19T02:10:00.823Z,22.25
2018-02-19T02:12:30.418Z,20.30
2018-02-19T02:14:59.914Z,22.40
2018-02-19T02:17:29.444Z,24.55
2018-02-19T02:19:58.911Z,20.00
2018-02-19T02:22:28.434Z,22.48
2018-02-19T02:24:57.931Z,24.20
2018-02-19T02:27:27.397Z,22.30
2018-02-19T02:29:56.935Z,21.77
2018-02-19T02:32:26.427Z,18.83
2018-02-19T02:34:55.932Z,21.30
2018-02-19T02:37:25.410Z,24.02
2018-02-19T02:39:54.925Z,22.70
2018-02-19T02:42:24.403Z,20.45
2018-02-19T02:44:53.899Z,23.38
2018-02-19T02:47:23.387Z,22.40
2018-02-19T02:49:52.929Z,22.42
2018-02-19T02:52:22.395Z,27.40
2018-02-19T02:54:51.924Z,28.30
2018-02-19T02:57:21.450Z,23.35
2018-02-19T02:59:50.925Z,22.30
2018-02-19T03:02:20.472Z,28.12
2018-02-19T03:04:49.936Z,21.92
2018-02-19T03:07:19.459Z,21.08
2018-02-19T03:09:48.915Z,25.75
2018-02-19T03:12:18.559Z,25.45
2018-02-19T03:14:48.025Z,24.83
2018-02-19T03:17:17.525Z,22.35
2018-02-19T03:19:47.043Z,26.35
2018-02-19T03:22:16.504Z,28.05
2018-02-19T03:24:46.019Z,29.67
2018-02-19T03:27:15.482Z,22.98
2018-02-19T03:29:44.991Z,27.05
2018-02-19T03:32:14.466Z,29.40
2018-02-19T03:34:43.968Z,24.10
2018-02-19T03:37:13.419Z,25.15
2018-02-19T03:39:42.932Z,20.52
2018-02-19T03:42:12.413Z,24.17
2018-02-19T03:44:41.965Z,29.60
2018-02-19T03:47:11.403Z,29.05
2018-02-19T03:49:40.922Z,26.25
2018-02-19T03:52:10.385Z,23.87
2018-02-19T03:54:39.889Z,27.40
2018-02-19T03:57:09.371Z,25.98
2018-02-19T03:59:39.011Z,29.75
2018-02-19T04:02:08.477Z,26.95
2018-02-19T04:04:37.977Z,28.73
2018-02-19T04:07:07.465Z,23.92
2018-02-19T04:09:36.968Z,27.80
2018-02-19T04:12:06.448Z,25.48
2018-02-19T04:14:35.947Z,26.98
2018-02-19T04:17:05.461Z,29.98
2018-02-19T04:19:34.953Z,28.95
2018-02-19T04:22:04.457Z,24.70
2018-02-19T04:24:33.935Z,27.52
2018-02-19T04:27:03.431Z,27.50
2018-02-19T04:29:33.036Z,22.23
2018-02-19T04:32:02.525Z,28.05
2018-02-19T04:34:32.028Z,28.40
2018-02-19T04:37:01.537Z,26.67
2018-02-19T04:39:31.029Z,26.40
2018-02-19T04:42:00.507Z,24.80
2018-02-19T04:44:35.995Z,23.95
2018-02-19T04:47:05.484Z,25.08
2018-02-19T04:49:34.976Z,26.17
2018-02-19T04:52:04.582Z,24.27
2018-02-19T04:54:34.082Z,30.33
2018-02-19T04:57:03.548Z,27.42
2018-02-19T04:59:33.068Z,25.40
2018-02-19T05:02:02.754Z,24.80
2018-02-19T05:04:32.248Z,32.97
2018-02-19T05:07:01.785Z,25.17
2018-02-19T05:09:31.270Z,27.90
2018-02-19T05:12:00.764Z,28.55
2018-02-19T05:14:30.228Z,25.30
2018-02-19T05:16:59.756Z,27.20
2018-02-19T05:19:29.214Z,26.05
2018-02-19T05:21:58.719Z,26.85
2018-02-19T05:24:28.189Z,26.95
2018-02-19T05:26:57.761Z,25.58
2018-02-19T05:29:27.263Z,25.65
2018-02-19T05:31:56.770Z,23.30
2018-02-19T05:34:26.236Z,23.38
2018-02-19T05:36:55.746Z,26.85
2018-02-19T05:39:25.268Z,27.83
2018-02-19T05:41:54.775Z,26.67
2018-02-19T05:44:24.295Z,28.17
2018-02-19T05:46:53.829Z,28.85
2018-02-19T05:49:23.367Z,27.95
2018-02-19T05:51:52.876Z,25.60
2018-02-19T05:54:22.358Z,31.85
2018-02-19T05:56:51.879Z,26.20
2018-02-19T05:59:21.400Z,25.02
2018-02-19T06:01:50.908Z,28.45
2018-02-19T06:04:20.403Z,29.33
2018-02-19T06:06:49.878Z,28.33
2018-02-19T06:09:19.404Z,29.35
2018-02-19T06:11:48.879Z,28.45
2018-02-19T06:14:18.423Z,27.13
2018-02-19T06:16:47.920Z,25.08
2018-02-19T06:19:17.450Z,27.42
2018-02-19T06:21:46.938Z,26.30
2018-02-19T06:24:16.452Z,26.83
2018-02-19T06:26:45.936Z,25.65
2018-02-19T06:29:15.472Z,25.42
2018-02-19T06:31:44.997Z,31.75
2018-02-19T06:34:14.671Z,28.48
2018-02-19T06:36:44.139Z,25.33
2018-02-19T06:39:13.644Z,30.55
2018-02-19T06:41:43.165Z,24.65
2018-02-19T06:44:12.685Z,27.87
2018-02-19T06:46:42.161Z,28.38
2018-02-19T06:49:11.668Z,35.67
2018-02-19T06:51:41.280Z,31.75
2018-02-19T06:54:10.781Z,28.10
2018-02-19T06:56:40.262Z,29.52
2018-02-19T06:59:09.766Z,27.10
2018-02-19T07:01:39.340Z,31.42
2018-02-19T07:04:08.818Z,28.83
2018-02-19T07:06:38.324Z,27.42
2018-02-19T07:09:07.810Z,27.08
2018-02-19T07:11:37.317Z,24.45
2018-02-19T07:14:06.799Z,27.45
2018-02-19T07:16:36.320Z,29.30
2018-02-19T07:19:06.138Z,24.52
2018-02-19T07:21:35.626Z,28.80
2018-02-19T07:24:05.244Z,26.67
2018-02-19T07:26:34.800Z,26.92
2018-02-19T07:29:04.280Z,26.33
2018-02-19T07:31:33.763Z,25.67
2018-02-19T07:34:03.268Z,28.80
2018-02-19T07:36:32.805Z,27.02
2018-02-19T07:39:02.305Z,30.98
2018-02-19T07:41:31.822Z,24.92
2018-02-19T07:44:01.347Z,28.08
2018-02-19T07:46:30.992Z,30.15
2018-02-19T07:49:00.503Z,27.23
2018-02-19T07:51:30.023Z,26.67
2018-02-19T07:53:59.520Z,29.63
2018-02-19T07:56:29.005Z,22.42
2018-02-19T07:58:58.526Z,29.30
2018-02-19T08:01:28.031Z,29.48
2018-02-19T08:03:57.517Z,26.20
2018-02-19T08:06:27.000Z,29.30
2018-02-19T08:08:56.573Z,27.15
2018-02-19T08:11:26.086Z,25.80
2018-02-19T08:13:55.600Z,25.50
2018-02-19T08:16:25.100Z,22.02
2018-02-19T08:18:54.611Z,25.55
2018-02-19T08:21:24.091Z,26.02
2018-02-19T08:23:53.624Z,27.92
2018-02-19T08:26:23.121Z,25.30
2018-02-19T08:28:52.663Z,28.50
2018-02-19T08:31:22.173Z,30.02
2018-02-19T08:33:51.721Z,27.83
2018-02-19T08:36:21.225Z,27.45
2018-02-19T08:38:50.709Z,27.70
2018-02-19T08:41:20.235Z,24.92
2018-02-19T08:43:49.724Z,26.12
2018-02-19T08:46:19.212Z,24.90
2018-02-19T08:48:48.731Z,25.80
2018-02-19T08:51:18.195Z,22.92
2018-02-19T08:53:47.722Z,26.08
2018-02-19T08:56:17.198Z,27.67
2018-02-19T08:58:46.722Z,21.23
2018-02-19T09:01:16.221Z,21.73
2018-02-19T09:03:45.727Z,25.90
2018-02-19T09:06:15.201Z,19.70
2018-02-19T09:08:44.744Z,25.62
2018-02-19T09:11:14.275Z,20.30
2018-02-19T09:13:43.816Z,25.10
2018-02-19T09:16:13.299Z,22.40
2018-02-19T09:18:42.832Z,23.33
2018-02-19T09:21:12.388Z,26.77
2018-02-19T09:23:41.883Z,19.37
2018-02-19T09:26:11.553Z,18.85
2018-02-19T09:28:41.204Z,21.05
2018-02-19T09:31:10.728Z,19.67
2018-02-19T09:33:40.194Z,24.20
2018-02-19T09:36:09.723Z,21.52
2018-02-19T09:38:40.021Z,19.70
2018-02-19T09:41:09.747Z,25.58
2018-02-19T09:43:39.217Z,19.62
2018-02-19T09:46:08.770Z,20.90
2018-02-19T09:48:38.276Z,23.08
2018-02-19T09:51:07.843Z,24.17
2018-02-19T09:53:37.377Z,18.50
2018-02-19T09:56:06.964Z,25.00
2018-02-19T09:58:36.438Z,22.87
2018-02-19T10:01:05.933Z,24.50
2018-02-19T10:03:35.494Z,25.58
2018-02-19T10:06:04.965Z,24.30
2018-02-19T10:08:34.471Z,25.23
2018-02-19T10:11:03.955Z,20.27
2018-02-19T10:13:33.502Z,23.20
2018-02-19T10:16:02.985Z,20.48
2018-02-19T10:18:32.545Z,24.95
2018-02-19T10:21:02.014Z,22.62
2018-02-19T10:23:31.536Z,22.27
2018-02-19T10:26:01.048Z,22.37
2018-02-19T10:28:30.556Z,27.17
2018-02-19T10:31:00.050Z,25.30
2018-02-19T10:33:29.563Z,20.75
2018-02-19T10:35:59.149Z,24.40
2018-02-19T10:38:28.633Z,32.97
2018-02-19T10:40:58.124Z,22.98
2018-02-19T10:43:27.613Z,26.08
2018-02-19T10:45:57.157Z,28.50
2018-02-19T10:48:26.630Z,26.65
2018-02-19T10:50:56.199Z,25.40
2018-02-19T10:53:25.680Z,22.83
2018-02-19T10:55:55.217Z,22.75
2018-02-19T10:58:24.720Z,22.27
2018-02-19T11:00:54.235Z,21.73
2018-02-19T11:03:23.780Z,23.48
2018-02-19T11:05:53.270Z,26.70
2018-02-19T11:08:22.814Z,26.77
2018-02-19T11:10:52.287Z,24.83
2018-02-19T11:13:21.830Z,22.17
2018-02-19T11:15:51.335Z,25.98
2018-02-19T11:18:20.814Z,25.05
2018-02-19T11:20:50.328Z,26.27
2018-02-19T11:23:19.859Z,26.50
2018-02-19T11:25:49.399Z,18.62
2018-02-19T11:28:18.982Z,23.48
2018-02-19T11:30:48.449Z,23.35
2018-02-19T11:33:17.934Z,21.75
2018-02-19T11:35:47.454Z,27.83
2018-02-19T11:38:16.979Z,22.23
2018-02-19T11:40:46.492Z,23.70
2018-02-19T11:43:16.037Z,22.45
2018-02-19T11:45:45.521Z,25.70
2018-02-19T11:48:15.036Z,26.00
2018-02-19T11:50:44.565Z,26.83
2018-02-19T11:53:14.668Z,20.37
2018-02-19T11:55:44.139Z,24.70
2018-02-19T11:58:13.653Z,26.08
2018-02-19T12:00:43.125Z,23.58
2018-02-19T12:03:12.643Z,23.65
2018-02-19T12:05:42.106Z,21.30
2018-02-19T12:08:11.766Z,22.58
2018-02-19T12:10:41.270Z,24.52
2018-02-19T12:13:10.798Z,22.30
2018-02-19T12:15:40.276Z,21.30
2018-02-19T12:18:09.765Z,21.33
2018-02-19T12:20:39.293Z,22.87
2018-02-19T12:23:08.769Z,21.37
2018-02-19T12:25:38.290Z,23.40
2018-02-19T12:28:07.802Z,22.52
2018-02-19T12:30:37.329Z,18.15
2018-02-19T12:33:06.796Z,19.87
2018-02-19T12:35:36.342Z,22.35
2018-02-19T12:38:05.839Z,28.67
2018-02-19T12:40:35.359Z,24.25
2018-02-19T12:43:04.830Z,25.92
2018-02-19T12:45:34.375Z,25.58
2018-02-19T12:48:03.972Z,24.55
2018-02-19T12:50:33.592Z,24.92
2018-02-19T12:53:03.102Z,21.48
2018-02-19T12:55:32.753Z,21.10
2018-02-19T12:58:02.240Z,24.63
2018-02-19T13:00:31.775Z,23.10
2018-02-19T13:03:01.272Z,25.90
2018-02-19T13:05:30.746Z,22.87
2018-02-19T13:08:00.366Z,23.60
2018-02-19T13:10:29.857Z,17.55
2018-02-19T13:12:59.409Z,23.45
2018-02-19T13:15:28.892Z,18.90
2018-02-19T13:17:58.421Z,20.52
2018-02-19T13:20:27.897Z,23.62
2018-02-19T13:22:57.566Z,19.42
2018-02-19T13:25:27.044Z,27.62
2018-02-19T13:27:56.536Z,23.67
2018-02-19T13:30:26.059Z,27.80
2018-02-19T13:32:55.508Z,23.90
2018-02-19T13:35:25.038Z,23.55
2018-02-19T13:37:54.568Z,24.67
2018-02-19T13:40:24.076Z,23.87
2018-02-19T13:42:53.551Z,27.00
2018-02-19T13:45:23.082Z,25.90
2018-02-19T13:47:52.537Z,23.23
2018-02-19T13:50:22.059Z,21.87
2018-02-19T13:52:51.575Z,22.48
2018-02-19T13:55:21.100Z,20.48
2018-02-19T13:57:50.601Z,21.98
2018-02-19T14:00:20.132Z,23.40
2018-02-19T14:02:49.626Z,23.98
2018-02-19T14:05:19.151Z,20.83
2018-02-19T14:07:48.635Z,20.30
2018-02-19T14:10:18.180Z,19.73
2018-02-19T14:12:47.662Z,24.77
2018-02-19T14:15:17.186Z,29.27
2018-02-19T14:17:46.716Z,23.12
2018-02-19T14:20:16.237Z,26.42
2018-02-19T14:22:45.725Z,22.40
2018-02-19T14:25:15.241Z,26.48
2018-02-19T14:27:44.745Z,27.40
2018-02-19T14:30:14.231Z,23.98
2018-02-19T14:32:43.731Z,20.23
2018-02-19T14:35:13.239Z,20.17
2018-02-19T14:37:42.739Z,24.35
2018-02-19T14:40:12.291Z,29.87
2018-02-19T14:42:41.797Z,28.00
2018-02-19T14:45:11.923Z,26.12
2018-02-19T14:47:41.433Z,26.15
2018-02-19T14:50:11.212Z,25.00
2018-02-19T14:52:40.778Z,26.17
2018-02-19T14:55:10.506Z,31.77
2018-02-19T14:57:40.081Z,28.85
2018-02-19T15:00:09.698Z,33.75
2018-02-19T15:02:39.234Z,28.38
2018-02-19T15:05:09.017Z,27.55
2018-02-19T15:07:38.624Z,32.65
2018-02-19T15:10:08.311Z,31.95
2018-02-19T15:12:37.978Z,34.30
2018-02-19T15:15:07.870Z,32.33
2018-02-19T15:17:37.458Z,29.12
2018-02-19T15:20:07.404Z,31.45
2018-02-19T15:22:36.943Z,33.00
2018-02-19T15:25:06.727Z,28.15
2018-02-19T15:27:36.277Z,28.90
2018-02-19T15:30:06.052Z,30.58
2018-02-19T15:32:35.634Z,30.23
2018-02-19T15:35:05.375Z,28.98
2018-02-19T15:37:34.912Z,30.27
2018-02-19T15:40:04.632Z,31.60
2018-02-19T15:42:34.184Z,30.15
2018-02-19T15:45:03.919Z,32.92
2018-02-19T15:47:33.463Z,32.42
2018-02-19T15:50:03.040Z,32.95
2018-02-19T15:52:32.611Z,31.90
2018-02-19T15:55:02.092Z,30.08
2018-02-19T15:57:31.666Z,29.80
2018-02-19T16:00:01.168Z,34.53
2018-02-19T16:02:30.682Z,26.58
2018-02-19T16:05:00.235Z,32.33
2018-02-19T16:07:29.701Z,34.10
2018-02-19T16:09:59.191Z,28.35
2018-02-19T16:12:28.666Z,33.50
2018-02-19T16:14:58.195Z,30.55
2018-02-19T16:17:27.716Z,31.62
2018-02-19T16:19:57.204Z,33.38
2018-02-19T16:22:26.708Z,31.35
2018-02-19T16:24:56.164Z,29.00
2018-02-19T16:27:25.662Z,30.48
2018-02-19T16:29:55.177Z,32.22
2018-02-19T16:32:24.686Z,29.10
2018-02-19T16:34:54.180Z,30.25
2018-02-19T16:37:23.705Z,30.27
2018-02-19T16:39:53.189Z,31.40
2018-02-19T16:42:22.721Z,30.62
2018-02-19T16:44:52.333Z,48.33
2018-02-19T16:47:21.948Z,32.58
2018-02-19T16:49:51.500Z,29.40
2018-02-19T16:52:21.006Z,32.47
2018-02-19T16:54:50.523Z,30.75
2018-02-19T16:57:20.007Z,34.03
2018-02-19T16:59:49.515Z,39.60
2018-02-19T17:02:19.005Z,34.65
2018-02-19T17:04:48.514Z,33.00
2018-02-19T17:07:18.620Z,38.65
2018-02-19T17:09:48.131Z,31.87
2018-02-19T17:12:17.636Z,27.65
2018-02-19T17:14:47.140Z,34.70
2018-02-19T17:17:16.620Z,30.40
2018-02-19T17:19:46.136Z,29.40
2018-02-19T17:22:15.634Z,30.27
2018-02-19T17:24:45.107Z,26.90
2018-02-19T17:27:14.650Z,33.28
2018-02-19T17:29:44.105Z,31.80
2018-02-19T17:32:13.621Z,31.60
2018-02-19T17:34:43.129Z,29.12
2018-02-19T17:37:12.640Z,32.53
2018-02-19T17:39:42.119Z,38.08
2018-02-19T17:42:11.643Z,33.30
2018-02-19T17:44:41.164Z,33.97
2018-02-19T17:47:10.655Z,33.40
2018-02-19T17:49:40.185Z,32.20
2018-02-19T17:52:09.649Z,31.50
2018-02-19T17:54:39.154Z,35.22
2018-02-19T17:57:08.702Z,33.40
2018-02-19T17:59:38.243Z,31.05
2018-02-19T18:02:07.719Z,30.27
2018-02-19T18:04:37.245Z,34.22
2018-02-19T18:07:06.757Z,26.50
2018-02-19T18:09:36.258Z,31.35
2018-02-19T18:12:05.768Z,28.12
2018-02-19T18:14:35.243Z,33.25
2018-02-19T18:17:04.739Z,31.48
2018-02-19T18:19:34.212Z,31.73
2018-02-19T18:22:03.724Z,31.17
2018-02-19T18:24:33.192Z,30.52
2018-02-19T18:27:02.691Z,30.08
2018-02-19T18:29:32.208Z,35.22
2018-02-19T18:32:01.677Z,31.37
2018-02-19T18:34:31.196Z,28.73
2018-02-19T18:37:00.672Z,28.50
2018-02-19T18:39:30.155Z,30.85
2018-02-19T18:41:59.714Z,29.60
2018-02-19T18:44:29.235Z,37.33
2018-02-19T18:46:58.705Z,32.03
2018-02-19T18:49:28.248Z,30.12
2018-02-19T18:51:57.742Z,32.83
2018-02-19T18:54:27.418Z,37.28
2018-02-19T18:56:56.931Z,28.42
2018-02-19T18:59:26.402Z,29.92
2018-02-19T19:01:55.941Z,35.20
2018-02-19T19:04:25.407Z,27.67
2018-02-19T19:06:54.950Z,30.65
2018-02-19T19:09:30.313Z,31.25
2018-02-19T19:11:59.852Z,24.42
2018-02-19T19:14:29.318Z,30.67
2018-02-19T19:16:58.871Z,31.75
2018-02-19T19:19:28.380Z,32.67
2018-02-19T19:21:58.051Z,29.02
2018-02-19T19:24:27.579Z,30.37
2018-02-19T19:26:57.989Z,27.08
2018-02-19T19:29:27.516Z,27.80
2018-02-19T19:31:56.984Z,28.38
2018-02-19T19:34:26.507Z,26.90
2018-02-19T19:36:55.991Z,28.40
2018-02-19T19:39:25.528Z,28.00
2018-02-19T19:41:55.079Z,23.10
2018-02-19T19:44:24.634Z,27.27
2018-02-19T19:46:54.098Z,31.60
2018-02-19T19:49:23.639Z,28.48
2018-02-19T19:51:53.157Z,29.35
2018-02-19T19:54:22.717Z,28.05
2018-02-19T19:56:52.208Z,32.17
2018-02-19T19:59:21.758Z,35.22
2018-02-19T20:01:51.228Z,28.45
2018-02-19T20:04:20.770Z,27.52
2018-02-19T20:06:50.387Z,31.70
2018-02-19T20:09:19.955Z,26.50
2018-02-19T20:11:49.784Z,29.83
2018-02-19T20:14:19.330Z,31.05
2018-02-19T20:16:48.812Z,26.42
2018-02-19T20:19:18.352Z,23.65
2018-02-19T20:21:48.028Z,24.23
2018-02-19T20:24:17.589Z,28.05
2018-02-19T20:26:47.077Z,22.35
2018-02-19T20:29:16.597Z,21.73
2018-02-19T20:31:46.141Z,22.05
2018-02-19T20:34:15.754Z,26.87
2018-02-19T20:36:45.275Z,22.23
2018-02-19T20:39:14.751Z,23.85
2018-02-19T20:41:44.282Z,20.37
2018-02-19T20:44:13.811Z,26.33
2018-02-19T20:46:43.357Z,25.33
2018-02-19T20:49:12.820Z,19.25
2018-02-19T20:51:42.370Z,22.27
2018-02-19T20:54:11.890Z,17.90
2018-02-19T20:56:41.440Z,20.98
2018-02-19T20:59:10.945Z,21.55
2018-02-19T21:01:40.479Z,21.08
2018-02-19T21:04:09.957Z,20.37
2018-02-19T21:06:39.479Z,18.60
2018-02-19T21:09:08.965Z,21.37
2018-02-19T21:11:38.501Z,21.70
2018-02-19T21:14:07.998Z,21.12
2018-02-19T21:16:38.333Z,23.20
2018-02-19T21:19:08.406Z,20.90
2018-02-19T21:21:37.934Z,20.58
2018-02-19T21:24:07.428Z,24.75
2018-02-19T21:26:36.926Z,25.45
2018-02-19T21:29:06.408Z,22.13
2018-02-19T21:31:35.907Z,22.80
2018-02-19T21:34:05.395Z,23.42
2018-02-19T21:36:34.901Z,23.20
2018-02-19T21:39:04.423Z,20.75
2018-02-19T21:41:33.936Z,20.30
2018-02-19T21:44:03.445Z,21.70
2018-02-19T21:46:32.924Z,20.27
2018-02-19T21:49:02.417Z,22.30
2018-02-19T21:51:31.920Z,20.73
2018-02-19T21:54:01.424Z,25.30
2018-02-19T21:56:30.944Z,21.75
2018-02-19T21:59:00.440Z,23.83
2018-02-19T22:01:29.906Z,21.23
2018-02-19T22:03:59.430Z,25.23
2018-02-19T22:06:28.903Z,27.02
2018-02-19T22:08:58.407Z,24.35
2018-02-19T22:11:28.029Z,21.10
2018-02-19T22:13:57.528Z,21.85
2018-02-19T22:16:27.030Z,19.42
2018-02-19T22:18:56.539Z,22.10
2018-02-19T22:21:26.174Z,21.90
2018-02-19T22:23:55.702Z,22.10
2018-02-19T22:26:25.178Z,21.90
2018-02-19T22:28:54.707Z,21.73
2018-02-19T22:31:24.224Z,21.70
2018-02-19T22:33:53.708Z,21.87
2018-02-19T22:36:23.230Z,21.20
2018-02-19T22:38:52.731Z,24.67
2018-02-19T22:41:22.237Z,21.48
2018-02-19T22:43:51.730Z,25.33
2018-02-19T22:46:21.254Z,27.62
2018-02-19T22:48:50.714Z,23.05
2018-02-19T22:51:20.278Z,23.02
2018-02-19T22:53:49.726Z,25.88
2018-02-19T22:56:19.262Z,21.85
2018-02-19T22:58:48.729Z,21.55
2018-02-19T23:01:18.223Z,25.60
2018-02-19T23:03:47.718Z,23.23
2018-02-19T23:06:17.213Z,22.50
2018-02-19T23:08:46.700Z,26.00
2018-02-19T23:11:16.195Z,21.92
2018-02-19T23:13:45.718Z,25.33
2018-02-19T23:16:15.168Z,23.55
2018-02-19T23:18:44.671Z,22.58
2018-02-19T23:21:14.391Z,22.98
2018-02-19T23:23:43.899Z,24.77
2018-02-19T23:26:13.403Z,25.48
2018-02-19T23:28:42.890Z,25.70
2018-02-19T23:31:12.359Z,22.65
2018-02-19T23:33:41.861Z,22.25
2018-02-19T23:36:11.330Z,23.50
2018-02-19T23:38:40.840Z,24.00
2018-02-19T23:41:10.361Z,29.63
2018-02-19T23:43:39.851Z,22.92
2018-02-19T23:46:09.372Z,27.42
2018-02-19T23:48:38.877Z,25.30
2018-02-19T23:51:08.386Z,27.13
2018-02-19T23:53:37.900Z,23.67
2018-02-19T23:56:07.368Z,26.45
2018-02-19T23:58:36.877Z,24.12
